Time;durP1;ratioP1;P1;durP2;ratioP2;P2;SDS_P1;SDS_P2;PMS_P1;PMS_P2;Temp;Humidity;BMP_temperature;BMP_pressure;BME280_temperature;BME280_humidity;BME280_pressure;Samples;Min_cycle;Max_cycle;Signal;HPM_P1;HPM_P2
2022/05/15 00:01:18;;;;;;;12.95;10.10;;;;;;;14.24;73.46;95615.97;5026722;28;20036;-76
2022/05/15 00:03:43;;;;;;;12.25;9.90;;;;;;;14.22;73.94;95626.09;5026578;28;20036;-75
2022/05/15 00:06:09;;;;;;;11.43;10.05;;;;;;;14.19;74.25;95624.63;5009703;28;20033;-76
2022/05/15 00:08:36;;;;;;;13.48;10.07;;;;;;;14.19;73.08;95624.63;5027205;28;20490;-75
2022/05/15 00:11:02;;;;;;;14.50;10.27;;;;;;;14.15;73.08;95620.69;5026217;28;20087;-76
2022/05/15 00:13:27;;;;;;;12.05;9.80;;;;;;;14.21;72.70;95619.88;5010440;28;20069;-76
2022/05/15 00:15:53;;;;;;;11.63;10.43;;;;;;;14.20;72.67;95620.91;5026362;28;20033;-76
2022/05/15 00:18:19;;;;;;;12.63;9.73;;;;;;;14.22;72.50;95620.72;5009723;28;20029;-76
2022/05/15 00:20:45;;;;;;;11.98;9.95;;;;;;;14.21;72.41;95614.50;5028063;28;20138;-77
2022/05/15 00:23:10;;;;;;;13.25;9.63;;;;;;;14.16;72.56;95616.94;5025859;28;20514;-75
2022/05/15 00:25:36;;;;;;;10.88;9.77;;;;;;;14.13;72.84;95617.34;5026481;28;20116;-75
2022/05/15 00:28:02;;;;;;;11.25;9.25;;;;;;;14.08;73.34;95617.06;5009344;28;20025;-75
2022/05/15 00:30:28;;;;;;;9.80;8.27;;;;;;;14.11;72.23;95615.84;5010047;28;20084;-76
2022/05/15 00:32:53;;;;;;;10.85;8.20;;;;;;;14.12;70.93;95615.69;5009499;28;20117;-76
2022/05/15 00:35:19;;;;;;;9.82;7.60;;;;;;;14.17;70.77;95624.00;5026168;28;20504;-76
2022/05/15 00:37:44;;;;;;;10.35;8.30;;;;;;;14.17;71.28;95621.28;5009713;28;20538;-75
2022/05/15 00:40:10;;;;;;;9.10;7.90;;;;;;;14.17;70.39;95620.47;5009010;28;20033;-76
2022/05/15 00:42:36;;;;;;;9.48;7.90;;;;;;;14.14;70.61;95624.38;4993142;28;20036;-76
2022/05/15 00:45:02;;;;;;;10.70;7.70;;;;;;;14.11;70.85;95623.94;5025227;28;20025;-75
2022/05/15 00:47:28;;;;;;;8.90;7.65;;;;;;;14.06;70.05;95619.13;5009476;28;20480;-75
2022/05/15 00:49:53;;;;;;;8.95;6.93;;;;;;;14.08;69.69;95615.22;5026996;28;20047;-76
2022/05/15 00:52:22;;;;;;;9.98;7.35;;;;;;;14.19;68.83;95621.94;4993075;28;20029;-75
2022/05/15 00:55:12;;;;;;;9.40;6.93;;;;;;;14.21;68.86;95625.28;5025797;28;20473;-76
2022/05/15 00:57:40;;;;;;;8.27;7.22;;;;;;;14.19;68.84;95621.94;5025179;28;20037;-75
2022/05/15 01:00:11;;;;;;;9.48;7.03;;;;;;;14.20;68.80;95620.91;5009421;28;20531;-74
2022/05/15 01:02:39;;;;;;;11.27;8.07;;;;;;;14.25;68.72;95617.63;5024985;28;20098;-75
2022/05/15 01:05:05;;;;;;;10.23;6.70;;;;;;;14.26;68.86;95627.41;5009710;28;20025;-74
2022/05/15 01:07:30;;;;;;;10.30;6.55;;;;;;;14.29;68.47;95618.91;5009192;28;20416;-76
2022/05/15 01:09:56;;;;;;;9.30;7.05;;;;;;;14.30;68.54;95627.84;5009113;28;20029;-75
2022/05/15 01:12:22;;;;;;;7.82;7.07;;;;;;;14.24;69.04;95621.34;4992635;28;20033;-76
2022/05/15 01:14:47;;;;;;;10.20;7.75;;;;;;;14.15;68.66;95625.22;5008558;28;20025;-74
2022/05/15 01:17:12;;;;;;;9.57;7.10;;;;;;;13.95;70.28;95618.63;5008937;28;20599;-75
2022/05/15 01:19:39;;;;;;;10.07;7.70;;;;;;;13.95;70.12;95615.94;5024809;28;20033;-74
2022/05/15 01:22:05;;;;;;;9.10;6.60;;;;;;;13.98;68.70;95616.59;5008860;28;20030;-75
2022/05/15 01:24:31;;;;;;;12.65;7.07;;;;;;;14.05;68.42;95614.75;5008800;28;20112;-76
2022/05/15 01:26:58;;;;;;;11.73;7.18;;;;;;;14.06;68.11;95616.44;5025650;28;20106;-75
2022/05/15 01:29:30;;;;;;;12.48;7.57;;;;;;;14.01;68.90;95616.19;5025136;28;20053;-74
2022/05/15 01:31:56;;;;;;;10.82;7.80;;;;;;;13.91;69.81;95611.13;5024919;28;20029;-77
2022/05/15 01:34:22;;;;;;;11.68;7.57;;;;;;;13.76;70.30;95621.97;5008752;28;20033;-75
2022/05/15 01:36:48;;;;;;;10.68;7.60;;;;;;;13.70;70.11;95618.19;5024499;28;20072;-75
2022/05/15 01:39:13;;;;;;;12.65;7.20;;;;;;;13.64;70.06;95618.97;5026334;28;20033;-75
2022/05/15 01:41:39;;;;;;;9.68;7.43;;;;;;;13.56;70.28;95614.50;5025915;28;20087;-76
2022/05/15 01:44:04;;;;;;;9.55;7.57;;;;;;;13.60;70.61;95607.72;5025100;28;20083;-76
2022/05/15 01:46:30;;;;;;;10.05;7.25;;;;;;;13.61;70.02;95608.56;5025978;28;20096;-77
2022/05/15 01:48:55;;;;;;;10.90;7.75;;;;;;;13.63;70.07;95611.88;5024980;28;20091;-76
2022/05/15 01:51:21;;;;;;;10.57;7.75;;;;;;;13.57;70.45;95613.50;5025049;28;20025;-75
2022/05/15 01:53:47;;;;;;;12.70;7.45;;;;;;;13.54;70.52;95616.59;5024644;28;20040;-76
2022/05/15 01:56:12;;;;;;;12.98;8.15;;;;;;;13.53;71.33;95617.59;5008678;28;20033;-74
2022/05/15 01:58:38;;;;;;;12.45;8.68;;;;;;;13.46;71.42;95621.03;5007812;28;20053;-75
2022/05/15 02:01:03;;;;;;;10.68;7.53;;;;;;;13.47;71.48;95614.63;5024940;28;20080;-76
2022/05/15 02:03:29;;;;;;;11.75;8.75;;;;;;;13.44;70.38;95623.09;5024469;28;20451;-78
2022/05/15 02:05:54;;;;;;;14.63;8.55;;;;;;;13.38;70.59;95623.00;5008697;28;20041;-75
2022/05/15 02:08:19;;;;;;;12.88;9.50;;;;;;;13.36;70.86;95617.81;5025864;28;20499;-76
2022/05/15 02:10:45;;;;;;;12.68;9.52;;;;;;;13.35;70.81;95622.34;5024643;28;20143;-75
2022/05/15 02:13:10;;;;;;;13.40;8.73;;;;;;;13.16;71.91;95629.19;5026037;28;20080;-76
2022/05/15 02:15:36;;;;;;;15.30;8.32;;;;;;;13.13;71.60;95631.41;5023888;28;20148;-76
2022/05/15 02:18:02;;;;;;;11.05;7.93;;;;;;;13.04;71.24;95622.63;5024862;28;20026;-76
2022/05/15 02:20:27;;;;;;;11.00;9.05;;;;;;;12.98;71.73;95618.78;5024054;28;20033;-75
2022/05/15 02:22:53;;;;;;;14.30;9.02;;;;;;;12.94;71.05;95626.44;5008585;28;20418;-76
2022/05/15 02:25:18;;;;;;;11.25;8.55;;;;;;;12.88;71.91;95626.34;5024623;28;20037;-74
2022/05/15 02:27:45;;;;;;;11.15;8.60;;;;;;;12.77;72.32;95620.41;5025774;28;20025;-76
2022/05/15 02:30:12;;;;;;;11.05;9.38;;;;;;;12.77;72.59;95624.97;4992663;28;20022;-76
2022/05/15 02:32:37;;;;;;;13.60;9.75;;;;;;;12.73;72.87;95628.00;5011550;28;20033;-75
2022/05/15 02:35:03;;;;;;;10.25;8.70;;;;;;;12.79;72.38;95629.13;5012151;28;20095;-75
2022/05/15 02:37:28;;;;;;;10.60;8.45;;;;;;;12.80;72.03;95636.16;4994784;28;20046;-75
2022/05/15 02:39:54;;;;;;;12.20;8.57;;;;;;;12.85;71.34;95632.91;5028571;28;20515;-75
2022/05/15 02:42:21;;;;;;;14.75;8.48;;;;;;;12.90;70.96;95641.28;5029248;28;20346;-75
2022/05/15 02:44:46;;;;;;;8.95;7.75;;;;;;;12.92;70.70;95639.25;5029512;28;20424;-77
2022/05/15 02:47:12;;;;;;;9.18;8.02;;;;;;;12.95;70.72;95636.16;5029530;28;20740;-76
2022/05/15 02:52:21;;;;;;;9.68;7.95;;;;;;;12.89;70.85;95645.00;5028735;28;20036;-76
2022/05/15 02:54:47;;;;;;;11.23;8.02;;;;;;;12.92;70.84;95641.94;5011125;28;20022;-75
2022/05/15 02:57:12;;;;;;;10.25;8.05;;;;;;;12.86;71.15;95645.38;5028343;28;20033;-75
2022/05/15 02:59:37;;;;;;;10.70;7.88;;;;;;;12.81;71.76;95643.25;5027502;28;20033;-76
2022/05/15 03:02:03;;;;;;;10.50;7.75;;;;;;;12.86;71.79;95643.50;5029562;28;20136;-75
2022/05/15 03:04:29;;;;;;;12.77;8.40;;;;;;;12.90;71.43;95653.88;5011561;28;20113;-76
2022/05/15 03:06:54;;;;;;;9.75;8.07;;;;;;;12.90;70.78;95646.66;5027575;28;20087;-75
2022/05/15 03:09:20;;;;;;;9.68;8.55;;;;;;;12.94;71.38;95649.81;4995153;28;20507;-76
2022/05/15 03:11:45;;;;;;;10.27;7.28;;;;;;;13.01;70.45;95653.41;5010643;28;20053;-77
2022/05/15 03:14:11;;;;;;;11.75;7.65;;;;;;;13.07;70.40;95657.25;5028049;28;20044;-76
2022/05/15 03:16:36;;;;;;;8.98;7.78;;;;;;;13.02;70.46;95656.97;5027277;28;20432;-76
2022/05/15 03:19:02;;;;;;;9.45;7.40;;;;;;;13.03;70.65;95658.63;5027851;28;20037;-77
2022/05/15 03:21:30;;;;;;;9.98;7.32;;;;;;;13.03;69.58;95659.47;5028743;28;20036;-77
2022/05/15 03:24:04;;;;;;;10.80;7.25;;;;;;;13.05;69.18;95654.72;5027616;28;20037;-78
2022/05/15 03:26:29;;;;;;;7.93;6.90;;;;;;;13.07;69.32;95658.06;5027956;28;20037;-76
2022/05/15 03:28:55;;;;;;;12.90;7.63;;;;;;;13.00;69.79;95664.38;5010381;28;20404;-76
2022/05/15 03:31:20;;;;;;;11.70;7.45;;;;;;;12.98;69.98;95661.88;5027685;28;20109;-77
2022/05/15 03:33:47;;;;;;;8.75;7.00;;;;;;;12.99;69.58;95671.63;5026903;28;20017;-75
2022/05/15 03:36:13;;;;;;;10.20;8.00;;;;;;;13.01;70.04;95658.81;5027558;28;20046;-76
2022/05/15 03:38:40;;;;;;;13.10;7.25;;;;;;;13.05;68.98;95660.13;5027252;28;20145;-77
2022/05/15 03:41:05;;;;;;;9.07;7.05;;;;;;;13.11;68.41;95666.59;5010868;28;20029;-75
2022/05/15 03:43:31;;;;;;;9.77;7.15;;;;;;;13.15;67.89;95667.06;5009770;28;20036;-77
2022/05/15 03:45:56;;;;;;;12.73;7.30;;;;;;;13.12;68.45;95670.13;5026688;28;20124;-76
2022/05/15 03:48:21;;;;;;;8.68;6.63;;;;;;;13.12;68.73;95664.75;5027250;28;20022;-77
2022/05/15 03:50:47;;;;;;;8.32;6.57;;;;;;;13.16;67.97;95677.66;5026488;28;20025;-76
2022/05/15 03:53:12;;;;;;;10.48;7.00;;;;;;;13.21;67.76;95675.25;5010762;28;20029;-77
2022/05/15 03:55:38;;;;;;;12.32;6.38;;;;;;;13.21;67.32;95679.78;4993820;28;20034;-77
2022/05/15 03:58:03;;;;;;;7.20;6.47;;;;;;;13.26;66.98;95676.53;5010499;28;20037;-76
2022/05/15 04:00:29;;;;;;;8.75;6.85;;;;;;;13.28;67.34;95679.88;5026785;28;20025;-77
2022/05/15 04:02:55;;;;;;;8.27;6.15;;;;;;;13.31;67.01;95671.41;5027745;28;20351;-76
2022/05/15 04:05:20;;;;;;;9.68;6.40;;;;;;;13.39;66.50;95671.31;4994048;28;20025;-78
2022/05/15 04:07:47;;;;;;;8.18;6.68;;;;;;;13.42;66.92;95673.63;5009727;28;20024;-77
2022/05/15 04:10:13;;;;;;;10.50;6.78;;;;;;;13.53;65.93;95676.88;5010141;28;20502;-77
2022/05/15 04:12:38;;;;;;;11.45;6.40;;;;;;;13.62;65.72;95670.38;5026345;28;20025;-77
2022/05/15 04:15:04;;;;;;;11.50;6.03;;;;;;;13.71;65.94;95673.75;5010106;28;20030;-76
2022/05/15 04:17:29;;;;;;;8.70;6.05;;;;;;;13.91;64.94;95684.75;5027717;28;20022;-75
2022/05/15 04:19:55;;;;;;;8.30;6.45;;;;;;;14.00;65.78;95693.56;5026630;28;20038;-75
2022/05/15 04:22:20;;;;;;;8.20;6.20;;;;;;;14.13;66.04;95676.66;5026425;28;20094;-76
2022/05/15 04:24:46;;;;;;;11.35;6.55;;;;;;;14.26;65.15;95686.75;5026571;28;20033;-77
2022/05/15 04:27:11;;;;;;;10.20;6.70;;;;;;;14.42;65.46;95688.34;5026417;28;20147;-78
2022/05/15 04:29:37;;;;;;;8.68;5.82;;;;;;;14.63;64.30;95692.03;5009441;28;20404;-76
2022/05/15 04:32:02;;;;;;;9.95;6.32;;;;;;;14.85;63.84;95683.06;5027542;28;20099;-76
2022/05/15 04:34:28;;;;;;;7.68;6.10;;;;;;;15.03;62.91;95687.94;5025912;28;20404;-78
2022/05/15 04:36:53;;;;;;;7.68;6.13;;;;;;;15.23;62.71;95687.22;5026459;28;20041;-75
2022/05/15 04:39:19;;;;;;;8.63;5.90;;;;;;;15.39;61.94;95681.47;5009402;28;20112;-76
2022/05/15 04:41:44;;;;;;;10.18;6.40;;;;;;;15.59;61.97;95680.69;5026139;28;20120;-77
2022/05/15 04:44:10;;;;;;;7.30;6.50;;;;;;;15.64;61.58;95683.63;5009571;28;20107;-77
2022/05/15 04:46:35;;;;;;;8.98;6.43;;;;;;;15.69;62.32;95683.03;5025554;28;20573;-75
2022/05/15 04:49:01;;;;;;;10.60;6.85;;;;;;;15.71;62.47;95680.97;5026236;28;20083;-76
2022/05/15 04:51:26;;;;;;;8.18;6.13;;;;;;;15.92;62.46;95684.53;5026798;28;20189;-76
2022/05/15 04:53:52;;;;;;;9.40;6.50;;;;;;;16.17;62.30;95690.25;5009219;28;20056;-76
2022/05/15 04:56:17;;;;;;;11.48;6.32;;;;;;;16.27;61.41;95689.84;5025626;28;20053;-77
2022/05/15 04:58:43;;;;;;;7.50;5.68;;;;;;;16.47;61.34;95682.75;5029259;28;20037;-77
2022/05/15 05:01:08;;;;;;;8.43;5.80;;;;;;;16.70;60.73;95686.94;5026395;28;20029;-75
2022/05/15 05:03:34;;;;;;;9.50;6.82;;;;;;;16.75;61.15;95690.66;5027034;28;20472;-76
2022/05/15 05:05:59;;;;;;;11.10;6.25;;;;;;;16.97;60.27;95692.31;5027006;28;20045;-77
2022/05/15 05:08:24;;;;;;;10.68;6.00;;;;;;;17.22;58.96;95688.97;5026220;28;20032;-80
2022/05/15 05:10:50;;;;;;;6.35;5.13;;;;;;;17.46;57.99;95689.28;5025623;28;20029;-76
2022/05/15 05:13:15;;;;;;;8.07;6.13;;;;;;;17.67;57.94;95691.69;5026191;28;20156;-77
2022/05/15 05:15:41;;;;;;;8.15;5.55;;;;;;;17.83;58.11;95688.72;5026945;28;20024;-76
2022/05/15 05:18:06;;;;;;;8.43;5.90;;;;;;;18.02;57.44;95685.03;5026356;28;20033;-77
2022/05/15 05:20:32;;;;;;;7.15;6.10;;;;;;;18.19;57.24;95683.72;5025251;28;20463;-76
2022/05/15 05:22:57;;;;;;;8.93;6.03;;;;;;;18.33;58.16;95693.44;5025224;28;20060;-76
2022/05/15 05:25:22;;;;;;;10.27;5.75;;;;;;;18.46;58.18;95683.53;5026131;28;20052;-76
2022/05/15 05:27:48;;;;;;;11.00;5.78;;;;;;;18.61;58.36;95694.06;5025390;28;20014;-75
2022/05/15 05:30:18;;;;;;;11.27;5.78;;;;;;;18.62;59.34;95695.72;5025895;28;20056;-76
2022/05/15 05:32:44;;;;;;;9.00;5.30;;;;;;;18.88;57.79;95696.53;5026581;28;20115;-77
2022/05/15 05:35:11;;;;;;;7.00;5.55;;;;;;;19.13;57.13;95691.09;5025964;28;20046;-76
2022/05/15 05:37:36;;;;;;;10.82;5.78;;;;;;;19.30;57.82;95685.06;5008693;28;20053;-76
2022/05/15 05:40:02;;;;;;;6.97;4.68;;;;;;;19.55;53.62;95689.59;5024913;28;20057;-78
2022/05/15 05:42:28;;;;;;;7.45;4.70;;;;;;;19.71;51.47;95679.97;5024688;28;20047;-76
2022/05/15 05:44:54;;;;;;;8.23;4.82;;;;;;;19.88;51.36;95677.44;5026526;28;20026;-78
2022/05/15 05:47:24;;;;;;;9.40;5.13;;;;;;;19.95;51.29;95674.63;5025620;28;20052;-77
2022/05/15 05:49:49;;;;;;;10.32;4.85;;;;;;;19.94;51.05;95667.50;5025044;28;20083;-77
2022/05/15 05:52:15;;;;;;;7.18;4.53;;;;;;;20.03;50.88;95676.22;5025851;28;20520;-78
2022/05/15 05:54:40;;;;;;;5.88;4.70;;;;;;;20.12;50.93;95676.72;5008620;28;20239;-76
2022/05/15 05:57:06;;;;;;;6.75;4.97;;;;;;;20.17;50.38;95676.06;5024521;28;20033;-80
2022/05/15 05:59:31;;;;;;;8.45;4.88;;;;;;;20.30;50.84;95680.44;5024480;28;20400;-76
2022/05/15 06:01:57;;;;;;;9.02;5.53;;;;;;;20.42;50.27;95681.31;5024595;28;20411;-79
2022/05/15 06:04:41;;;;;;;6.78;4.65;;;;;;;20.39;49.31;95676.34;5024471;28;20033;-76
2022/05/15 06:07:18;;;;;;;7.55;4.38;;;;;;;20.52;49.09;95678.03;5010641;28;20484;-76
2022/05/15 06:09:44;;;;;;;7.75;4.93;;;;;;;20.60;50.09;95679.56;5023802;28;20029;-79
2022/05/15 06:12:11;;;;;;;9.18;4.80;;;;;;;20.75;49.82;95684.53;5025047;28;20488;-77
2022/05/15 06:14:36;;;;;;;6.40;4.70;;;;;;;20.79;48.72;95683.03;5025319;28;20029;-79
2022/05/15 06:17:02;;;;;;;5.25;4.43;;;;;;;20.82;48.56;95682.56;5025877;28;20377;-78
2022/05/15 06:19:28;;;;;;;10.05;4.68;;;;;;;20.91;48.55;95679.47;5024496;28;20025;-77
2022/05/15 06:21:53;;;;;;;6.80;4.57;;;;;;;20.90;49.05;95678.63;5024025;28;20053;-77
2022/05/15 06:24:19;;;;;;;7.82;4.47;;;;;;;20.83;48.46;95672.50;5026180;28;20026;-77
2022/05/15 06:26:44;;;;;;;7.75;4.60;;;;;;;20.82;48.83;95679.00;5024010;28;20025;-78
2022/05/15 06:29:09;;;;;;;8.88;4.90;;;;;;;20.93;49.40;95682.81;5025774;28;20496;-76
2022/05/15 06:31:35;;;;;;;6.18;5.18;;;;;;;20.90;49.45;95685.97;5025138;28;20025;-76
2022/05/15 06:34:00;;;;;;;7.47;4.90;;;;;;;21.03;49.25;95687.66;5025786;28;20026;-77
2022/05/15 06:36:26;;;;;;;5.75;4.40;;;;;;;21.06;48.28;95681.75;5025625;28;20046;-77
2022/05/15 06:38:51;;;;;;;5.05;4.35;;;;;;;21.09;48.69;95679.38;5007428;28;20037;-78
2022/05/15 06:41:17;;;;;;;6.47;4.38;;;;;;;21.10;47.37;95691.94;5025619;28;20044;-78
2022/05/15 06:43:42;;;;;;;5.75;4.00;;;;;;;21.24;48.13;95686.25;5023512;28;20029;-80
2022/05/15 06:46:07;;;;;;;7.03;4.28;;;;;;;21.40;47.81;95681.94;5007805;28;20109;-78
2022/05/15 06:48:34;;;;;;;8.18;4.45;;;;;;;21.49;48.19;95679.66;5023501;28;20029;-78
2022/05/15 06:51:00;;;;;;;5.53;3.67;;;;;;;21.61;46.89;95676.91;5024447;28;20033;-80
2022/05/15 06:53:26;;;;;;;10.70;4.70;;;;;;;21.64;47.63;95684.63;5007329;28;20026;-79
2022/05/15 06:58:35;;;;;;;6.43;3.90;;;;;;;21.96;44.99;95686.06;5025315;28;20121;-78
2022/05/15 07:01:01;;;;;;;4.93;3.63;;;;;;;22.01;44.84;95685.34;5023132;28;20033;-78
2022/05/15 07:03:27;;;;;;;4.60;3.40;;;;;;;22.04;43.61;95685.69;5007667;28;20021;-80
2022/05/15 07:05:52;;;;;;;7.38;4.15;;;;;;;22.00;43.89;95679.06;5007060;28;20021;-78
2022/05/15 07:08:18;;;;;;;5.05;4.07;;;;;;;21.92;44.37;95676.72;5025756;28;20057;-79
2022/05/15 07:10:43;;;;;;;5.65;3.80;;;;;;;21.81;44.01;95676.50;5023508;28;20026;-76
2022/05/15 07:13:09;;;;;;;7.57;3.72;;;;;;;21.77;45.31;95677.22;5023671;28;20056;-76
2022/05/15 07:15:36;;;;;;;4.65;3.50;;;;;;;21.67;46.15;95683.28;5024000;28;20033;-78
2022/05/15 07:18:03;;;;;;;5.05;3.58;;;;;;;21.71;45.41;95692.69;5026219;28;20028;-76
2022/05/15 07:20:28;;;;;;;6.35;3.55;;;;;;;21.79;45.51;95684.13;5010914;28;20031;-76
2022/05/15 07:22:53;;;;;;;7.03;3.70;;;;;;;21.74;44.81;95681.28;5027766;28;20025;-77
2022/05/15 07:25:20;;;;;;;13.00;3.50;;;;;;;21.73;43.88;95693.28;5027603;28;20362;-80
2022/05/15 07:27:45;;;;;;;5.13;4.05;;;;;;;21.84;43.72;95689.69;4994208;28;20052;-78
2022/05/15 07:30:12;;;;;;;6.75;3.92;;;;;;;21.88;44.61;95686.50;5028718;28;20431;-78
2022/05/15 07:32:37;;;;;;;7.05;3.85;;;;;;;21.99;44.52;95688.31;5027912;28;20447;-79
2022/05/15 07:35:03;;;;;;;7.65;3.78;;;;;;;22.10;44.56;95694.81;5026435;28;20022;-78
2022/05/15 07:37:29;;;;;;;6.70;3.72;;;;;;;22.05;44.12;95692.00;5010300;28;20041;-76
2022/05/15 07:39:54;;;;;;;4.45;3.53;;;;;;;22.09;43.82;95682.22;5027459;28;20377;-77
2022/05/15 07:42:20;;;;;;;5.03;3.40;;;;;;;22.04;42.67;95690.34;5028215;28;20404;-76
2022/05/15 07:44:45;;;;;;;7.95;3.90;;;;;;;21.90;42.71;95693.34;5027530;28;20029;-77
2022/05/15 07:47:11;;;;;;;8.30;3.80;;;;;;;21.90;44.50;95684.31;4994156;28;20063;-77
2022/05/15 07:49:37;;;;;;;5.53;3.83;;;;;;;21.93;44.50;95683.84;5027924;28;20032;-79
2022/05/15 07:52:03;;;;;;;5.50;3.80;;;;;;;21.90;44.83;95689.78;5026489;28;20109;-77
2022/05/15 07:54:28;;;;;;;4.30;3.42;;;;;;;22.04;43.16;95693.88;5010257;28;20132;-77
2022/05/15 07:56:54;;;;;;;5.88;3.40;;;;;;;21.94;42.77;95688.25;5009498;28;20277;-77
2022/05/15 07:59:20;;;;;;;5.72;3.45;;;;;;;21.95;42.77;95684.44;5010282;28;20029;-76
2022/05/15 08:01:45;;;;;;;6.55;3.35;;;;;;;22.04;42.53;95690.34;5009517;28;20033;-76
2022/05/15 08:04:11;;;;;;;8.95;3.13;;;;;;;22.09;41.60;95691.25;5027963;28;20029;-76
2022/05/15 08:09:20;;;;;;;4.65;3.50;;;;;;;22.18;40.02;95696.34;5012576;28;20554;-76
2022/05/15 08:11:45;;;;;;;4.70;3.55;;;;;;;22.01;40.23;95697.09;4993781;28;20037;-76
2022/05/15 08:14:11;;;;;;;10.70;3.50;;;;;;;21.91;41.23;95692.28;5027122;28;20093;-78
2022/05/15 08:16:38;;;;;;;5.38;2.58;;;;;;;21.80;40.20;95702.16;5026411;28;20025;-78
2022/05/15 08:24:32;;;;;;;6.78;2.88;;;;;;;21.94;39.19;95702.69;5026502;28;20127;-76
2022/05/15 08:26:58;;;;;;;6.65;2.67;;;;;;;22.05;38.43;95698.28;5026132;28;20481;-76
2022/05/15 08:29:23;;;;;;;4.35;2.53;;;;;;;22.28;38.67;95696.50;5025342;28;20033;-77
2022/05/15 08:31:49;;;;;;;4.45;2.50;;;;;;;22.35;39.25;95708.13;5026941;28;20074;-75
2022/05/15 08:34:14;;;;;;;4.20;2.30;;;;;;;22.35;38.22;95702.66;5026041;28;20108;-77
2022/05/15 08:36:42;;;;;;;4.90;2.10;;;;;;;22.46;38.23;95700.09;5008915;28;20041;-77
2022/05/15 08:39:08;;;;;;;3.67;2.13;;;;;;;22.55;37.32;95693.16;5025974;28;20079;-76
2022/05/15 08:41:37;;;;;;;6.38;2.60;;;;;;;22.31;37.50;95703.41;5026927;28;20535;-77
2022/05/15 08:44:14;;;;;;;3.45;2.33;;;;;;;22.46;36.82;95702.81;5025809;28;20067;-76
2022/05/15 08:46:40;;;;;;;4.47;2.72;;;;;;;22.55;37.75;95698.63;5026056;28;20025;-77
2022/05/15 08:49:09;;;;;;;5.88;2.00;;;;;;;22.56;35.81;95703.00;5027073;28;20021;-76
2022/05/15 08:51:35;;;;;;;4.40;2.33;;;;;;;22.67;35.94;95709.50;5025769;28;20473;-77
2022/05/15 08:54:02;;;;;;;8.45;2.40;;;;;;;22.70;37.03;95709.00;5025231;28;20113;-78
2022/05/15 08:56:29;;;;;;;7.60;2.00;;;;;;;22.74;34.79;95703.88;5025672;28;20072;-76
2022/05/15 08:58:55;;;;;;;3.70;1.98;;;;;;;22.81;34.97;95704.53;5009332;28;20030;-77
2022/05/15 09:01:24;;;;;;;6.05;2.25;;;;;;;22.89;34.61;95702.47;5009239;28;20025;-75
2022/05/15 09:03:49;;;;;;;4.35;2.00;;;;;;;22.96;34.42;95711.31;4993603;28;20033;-78
2022/05/15 09:06:36;;;;;;;5.38;2.00;;;;;;;22.72;33.40;95706.88;5025074;28;20033;-77
2022/05/15 09:09:32;;;;;;;4.95;2.10;;;;;;;22.59;32.79;95707.16;5025810;28;20510;-76
2022/05/15 09:12:14;;;;;;;6.00;2.10;;;;;;;22.76;33.90;95704.47;5025468;28;20041;-76
2022/05/15 09:14:54;;;;;;;3.85;2.00;;;;;;;22.80;33.79;95707.50;5025507;28;20476;-76
2022/05/15 09:17:38;;;;;;;3.17;1.88;;;;;;;22.93;34.59;95701.72;5025242;28;20073;-75
2022/05/15 09:20:09;;;;;;;10.15;2.10;;;;;;;23.07;33.48;95694.00;5026434;28;20116;-75
2022/05/15 09:22:45;;;;;;;8.52;2.13;;;;;;;23.11;33.11;95697.06;5025468;28;20040;-76
2022/05/15 09:25:15;;;;;;;5.57;2.25;;;;;;;23.20;33.35;95694.72;5009877;28;20022;-79
2022/05/15 09:28:04;;;;;;;4.38;1.95;;;;;;;23.26;32.49;95690.16;5024831;28;20121;-77
2022/05/15 09:30:38;;;;;;;5.90;2.10;;;;;;;23.18;33.17;95692.22;5024721;28;20537;-81
2022/05/15 09:33:04;;;;;;;3.35;1.80;;;;;;;23.32;32.47;95689.16;4991977;28;20030;-77
2022/05/15 09:35:37;;;;;;;4.00;1.60;;;;;;;23.36;32.35;95694.94;4992262;28;20079;-77
2022/05/15 09:43:41;;;;;;;4.20;2.10;;;;;;;23.58;33.34;95689.53;5011903;28;20040;-78
2022/05/15 09:46:14;;;;;;;6.55;2.00;;;;;;;23.65;34.30;95683.88;5024397;28;20043;-75
2022/05/15 09:49:03;;;;;;;2.90;2.00;;;;;;;23.64;33.65;95684.94;5008964;28;20029;-77
2022/05/15 09:51:54;;;;;;;4.38;2.20;;;;;;;23.69;33.73;95679.53;5024991;28;20040;-75
2022/05/15 09:54:37;;;;;;;5.35;2.15;;;;;;;23.70;33.80;95681.16;5026010;28;20106;-78
2022/05/15 09:57:26;;;;;;;;;;;;;;;23.58;33.48;95684.88;5027032;28;20027;-79
2022/05/15 10:00:00;;;;;;;4.72;3.17;;;;;;;23.57;34.45;95676.91;5025536;28;19921;-76
2022/05/15 10:02:30;;;;;;;3.75;2.33;;;;;;;23.62;34.34;95681.63;5025636;28;20037;-76
2022/05/15 10:04:56;;;;;;;4.25;2.20;;;;;;;23.66;33.49;95675.41;5026220;28;20025;-76
2022/05/15 10:07:29;;;;;;;7.97;2.35;;;;;;;23.63;33.89;95675.06;5025533;28;20033;-77
2022/05/15 10:09:54;;;;;;;5.18;2.30;;;;;;;23.65;35.22;95678.38;5026097;28;20547;-75
2022/05/15 10:12:20;;;;;;;103.85;15.48;;;;;;;23.69;35.34;95674.88;5008032;28;20029;-77
2022/05/15 10:14:50;;;;;;;248.57;28.10;;;;;;;23.71;35.02;95680.09;5026092;28;20021;-77
2022/05/15 10:17:16;;;;;;;8.38;2.20;;;;;;;23.71;33.90;95674.63;5008729;28;20038;-76
2022/05/15 10:20:26;;;;;;;3.30;1.55;;;;;;;23.66;33.05;95686.34;5007703;28;20014;-76
2022/05/15 10:23:05;;;;;;;4.68;2.20;;;;;;;23.43;33.32;95679.19;5025430;28;20053;-77
2022/05/15 10:25:59;;;;;;;6.68;1.90;;;;;;;23.36;32.93;95671.13;5008371;28;20026;-75
2022/05/15 10:28:27;;;;;;;3.38;2.03;;;;;;;23.39;33.56;95676.13;5024259;28;20211;-76
2022/05/15 10:31:16;;;;;;;4.68;1.88;;;;;;;23.45;34.83;95674.31;5024537;28;20053;-77
2022/05/15 10:33:42;;;;;;;6.13;2.30;;;;;;;23.55;34.43;95668.94;5008099;28;20033;-76
2022/05/15 10:36:45;;;;;;;4.78;2.25;;;;;;;23.61;35.13;95666.28;5024775;28;20021;-74
2022/05/15 10:39:29;;;;;;;;;;;;;;;23.60;34.63;95664.63;5026595;28;20037;-77
2022/05/15 10:42:22;;;;;;;4.00;1.92;;;;;;;23.59;34.64;95669.25;5023453;28;20040;-77
2022/05/15 10:45:14;;;;;;;6.60;2.40;;;;;;;23.57;34.70;95658.56;5025920;28;20057;-76
2022/05/15 10:48:18;;;;;;;7.00;2.53;;;;;;;23.65;35.53;95656.50;5025936;28;20022;-77
2022/05/15 10:50:59;;;;;;;5.75;2.40;;;;;;;23.75;35.11;95650.28;5025106;28;20017;-78
2022/05/15 10:59:35;;;;;;;;;;;;;;;23.91;34.32;95654.84;5030033;28;20472;-77
2022/05/15 11:02:12;;;;;;;35.58;4.35;;;;;;;23.97;35.73;95653.00;5029081;28;20318;-75
2022/05/15 11:04:37;;;;;;;5.13;2.67;;;;;;;24.14;35.87;95643.84;5029305;28;20064;-79
2022/05/15 11:07:22;;;;;;;6.00;2.28;;;;;;;24.11;34.13;95653.44;5028988;28;20030;-78
2022/05/15 11:10:07;;;;;;;6.60;2.40;;;;;;;24.15;34.61;95640.88;5028025;28;20029;-78
2022/05/15 11:12:54;;;;;;;7.22;2.25;;;;;;;24.26;33.89;95646.47;5027385;28;20030;-79
2022/05/15 11:15:46;;;;;;;5.10;2.42;;;;;;;24.38;35.75;95638.91;5029624;28;20500;-77
2022/05/15 11:18:45;;;;;;;8.68;2.40;;;;;;;24.54;35.18;95628.91;5027825;28;20033;-77
2022/05/15 11:21:25;;;;;;;5.13;2.42;;;;;;;24.67;34.50;95633.09;5027059;28;20037;-79
2022/05/15 11:24:10;;;;;;;7.47;2.25;;;;;;;24.62;34.28;95632.25;4996803;28;20025;-78
2022/05/15 11:26:41;;;;;;;9.70;2.70;;;;;;;24.75;34.91;95631.78;5027535;28;20093;-77
2022/05/15 11:29:09;;;;;;;7.90;2.85;;;;;;;24.78;34.95;95623.03;5010889;28;20067;-77
2022/05/15 11:31:37;;;;;;;4.75;2.35;;;;;;;24.75;34.55;95629.06;5027619;28;20029;-79
2022/05/15 11:34:05;;;;;;;9.50;2.30;;;;;;;24.83;34.64;95624.19;4993978;28;20280;-76
2022/05/15 11:36:45;;;;;;;7.15;2.50;;;;;;;25.04;35.08;95614.16;5027437;28;20045;-78
2022/05/15 11:39:13;;;;;;;5.05;2.92;;;;;;;25.19;34.68;95629.91;4994679;28;20029;-76
2022/05/15 11:41:38;;;;;;;4.55;2.47;;;;;;;25.18;34.70;95625.53;5027055;28;20029;-76
2022/05/15 11:44:10;;;;;;;7.35;3.08;;;;;;;25.09;33.39;95627.09;5028163;28;20078;-77
2022/05/15 11:46:45;;;;;;;5.88;2.85;;;;;;;25.03;33.42;95629.81;5026890;28;20045;-77
2022/05/15 11:49:35;;;;;;;5.10;2.70;;;;;;;25.13;33.50;95630.97;5028095;28;20064;-79
2022/05/15 11:52:03;;;;;;;6.43;2.63;;;;;;;25.18;33.35;95629.06;5026693;28;20497;-78
2022/05/15 11:54:31;;;;;;;7.05;2.75;;;;;;;25.15;33.48;95623.31;5026924;28;20098;-77
2022/05/15 11:56:56;;;;;;;5.88;3.05;;;;;;;25.02;33.78;95625.41;5010935;28;20021;-77
2022/05/15 11:59:26;;;;;;;4.47;2.45;;;;;;;24.85;34.09;95627.47;5026389;28;20484;-78
2022/05/15 12:02:31;;;;;;;7.57;2.88;;;;;;;24.73;33.76;95625.75;5027022;28;20445;-79
2022/05/15 12:05:39;;;;;;;11.85;3.65;;;;;;;24.76;34.05;95616.97;5027186;28;20028;-78